Time;durP1;ratioP1;P1;durP2;ratioP2;P2;SDS_P1;SDS_P2;PMS_P1;PMS_P2;Temp;Humidity;BMP_temperature;BMP_pressure;BME280_temperature;BME280_humidity;BME280_pressure;Samples;Min_cycle;Max_cycle;Signal;HPM_P1;HPM_P2
2023/07/24 00:00:08;;;;;;;7.32;5.65;;;;;;;-146.25;100.00;52331.69;2095830;28;31960;-71
2023/07/24 00:01:10;;;;;;;6.90;5.68;;;;;;;-146.25;100.00;52299.25;2089210;28;20057;-71
2023/07/24 00:02:13;;;;;;;6.88;6.10;;;;;;;-146.25;100.00;52303.31;2088034;28;29850;-71
2023/07/24 00:03:15;;;;;;;7.85;5.80;;;;;;;-146.25;100.00;52303.31;2087573;28;33835;-69
2023/07/24 00:04:17;;;;;;;6.32;5.40;;;;;;;-146.25;100.00;52323.59;2079627;28;38057;-70
2023/07/24 00:05:19;;;;;;;6.97;6.28;;;;;;;-146.25;100.00;52293.19;2088175;28;26232;-70
2023/07/24 00:06:21;;;;;;;6.25;5.57;;;;;;;-146.25;100.00;52307.38;2088221;28;35564;-71
2023/07/24 00:07:23;;;;;;;8.35;5.75;;;;;;;-146.25;100.00;52266.81;2088178;28;31630;-72
2023/07/24 00:08:25;;;;;;;6.78;5.53;;;;;;;-146.25;100.00;52315.47;2087930;28;29325;-70
2023/07/24 00:09:26;;;;;;;8.52;5.65;;;;;;;-146.25;100.00;52268.84;2088241;28;37922;-70
2023/07/24 00:10:28;;;;;;;6.22;5.63;;;;;;;-146.25;100.00;52283.03;2088924;28;27644;-71
2023/07/24 00:11:30;;;;;;;8.48;6.03;;;;;;;-146.25;100.00;52266.81;2087711;28;36295;-72
2023/07/24 00:12:32;;;;;;;6.53;5.93;;;;;;;-146.25;100.00;52291.16;2088402;28;20879;-71
2023/07/24 00:13:34;;;;;;;8.13;5.63;;;;;;;-146.25;100.00;52274.94;2088653;28;34192;-71
2023/07/24 00:14:36;;;;;;;7.07;5.63;;;;;;;-146.25;100.00;52260.72;2088082;28;36659;-71
2023/07/24 00:15:39;;;;;;;6.18;5.57;;;;;;;-146.25;100.00;52281.00;2088450;28;33596;-71
2023/07/24 00:16:40;;;;;;;9.88;5.70;;;;;;;-146.25;100.00;52319.53;2088160;28;35566;-70
2023/07/24 00:17:42;;;;;;;6.20;5.18;;;;;;;-146.25;100.00;52299.25;2088085;28;36447;-71
2023/07/24 00:18:44;;;;;;;10.10;5.57;;;;;;;-146.25;100.00;52299.25;2094722;28;35834;-71
2023/07/24 00:19:46;;;;;;;6.60;5.25;;;;;;;-146.25;100.00;52311.44;2096218;28;34752;-71
2023/07/24 00:20:47;;;;;;;10.07;5.65;;;;;;;-146.25;100.00;52274.94;2096636;28;34110;-71
2023/07/24 00:21:49;;;;;;;8.80;5.68;;;;;;;-146.25;100.00;52274.94;2095375;28;33699;-71
2023/07/24 00:22:51;;;;;;;6.97;5.13;;;;;;;-146.25;100.00;52315.47;2087369;28;34393;-71
2023/07/24 00:23:53;;;;;;;7.28;5.75;;;;;;;-146.25;100.00;52283.03;2087709;28;34746;-71
2023/07/24 00:24:57;;;;;;;5.93;5.32;;;;;;;-146.25;100.00;52309.41;2095856;28;33784;-71
2023/07/24 00:25:58;;;;;;;7.80;5.22;;;;;;;-146.25;100.00;52285.06;2096605;28;33808;-71
2023/07/24 00:27:01;;;;;;;7.75;5.22;;;;;;;-146.25;100.00;52309.41;2096027;28;31001;-71
2023/07/24 00:28:05;;;;;;;6.07;5.10;;;;;;;-146.25;100.00;52297.22;2088341;28;20964;-71
2023/07/24 00:29:07;;;;;;;5.97;5.07;;;;;;;-146.25;100.00;52309.41;2088333;28;28151;-71
2023/07/24 00:30:11;;;;;;;7.93;5.30;;;;;;;-146.25;100.00;52301.28;2096493;28;20045;-74
2023/07/24 00:31:13;;;;;;;5.10;4.57;;;;;;;-146.25;100.00;52295.19;2088151;28;27578;-70
2023/07/24 00:32:16;;;;;;;9.40;4.82;;;;;;;-146.25;100.00;52343.88;2087066;28;20062;-71
2023/07/24 00:33:18;;;;;;;6.07;5.20;;;;;;;-146.25;100.00;52287.09;2093643;28;33319;-71
2023/07/24 00:34:22;;;;;;;6.50;4.95;;;;;;;-146.25;100.00;52327.66;2096522;28;22908;-71
2023/07/24 00:35:28;;;;;;;6.22;5.35;;;;;;;-146.25;100.00;52335.75;2095618;28;28176;-71
2023/07/24 00:36:30;;;;;;;9.18;5.40;;;;;;;-146.25;100.00;52341.84;2089275;28;20064;-71
2023/07/24 00:37:33;;;;;;;7.32;5.03;;;;;;;-146.25;100.00;52287.09;2088442;28;20068;-71
2023/07/24 00:38:35;;;;;;;7.13;5.38;;;;;;;-146.25;100.00;52287.09;2087709;28;20037;-71
2023/07/24 00:39:37;;;;;;;5.70;5.00;;;;;;;-146.25;100.00;52325.63;2087731;28;21637;-72
2023/07/24 00:40:39;;;;;;;7.93;5.43;;;;;;;-146.25;100.00;52295.19;2095937;28;32113;-72
2023/07/24 00:41:42;;;;;;;7.20;5.53;;;;;;;-146.25;100.00;52319.53;2095739;28;29973;-72
2023/07/24 00:42:48;;;;;;;9.93;5.88;;;;;;;-146.25;100.00;52315.47;2095565;28;32769;-71
2023/07/24 00:43:50;;;;;;;10.32;5.65;;;;;;;-146.25;100.00;52307.38;2097079;28;26353;-72
2023/07/24 00:44:52;;;;;;;5.72;5.10;;;;;;;-146.25;100.00;52301.28;2097534;28;20106;-71
2023/07/24 00:45:56;;;;;;;6.90;5.50;;;;;;;-146.25;100.00;52303.31;2095702;28;31346;-72
2023/07/24 00:46:58;;;;;;;6.07;5.20;;;;;;;-146.25;100.00;52315.47;2088356;28;20065;-72
2023/07/24 00:48:00;;;;;;;7.78;5.88;;;;;;;-146.25;100.00;52287.09;2096357;28;20040;-72
2023/07/24 00:49:04;;;;;;;7.75;5.25;;;;;;;-146.25;100.00;52285.06;2095607;28;36613;-72
2023/07/24 00:50:08;;;;;;;7.03;5.63;;;;;;;-146.25;100.00;52349.94;2096348;28;20949;-72
2023/07/24 00:51:09;;;;;;;5.72;5.22;;;;;;;-146.25;100.00;52333.72;2096128;28;32497;-72
2023/07/24 00:52:12;;;;;;;6.60;5.63;;;;;;;-146.25;100.00;52266.81;2096441;28;20049;-72
2023/07/24 00:53:16;;;;;;;5.05;4.57;;;;;;;-146.25;100.00;52299.25;2096566;28;25878;-72
2023/07/24 00:54:19;;;;;;;9.00;5.68;;;;;;;-146.25;100.00;52281.00;2096667;28;20159;-72
2023/07/24 00:55:23;;;;;;;7.97;5.40;;;;;;;-146.25;100.00;52315.47;2096169;28;25978;-72
2023/07/24 00:56:27;;;;;;;8.32;5.90;;;;;;;-146.25;100.00;52305.34;2096178;28;27344;-72
2023/07/24 00:57:29;;;;;;;7.20;5.07;;;;;;;-146.25;100.00;52315.47;2095685;28;32455;-72
2023/07/24 00:58:37;;;;;;;7.38;6.07;;;;;;;-146.25;100.00;52283.03;2096972;28;20930;-72
2023/07/24 00:59:41;;;;;;;6.43;5.65;;;;;;;-146.25;100.00;52311.44;2080075;28;34260;-73
2023/07/24 01:00:43;;;;;;;5.72;5.13;;;;;;;-146.25;100.00;52291.16;2089092;28;20988;-72
2023/07/24 01:01:47;;;;;;;8.25;5.53;;;;;;;-146.25;100.00;52331.69;2087805;28;20116;-72
2023/07/24 01:02:49;;;;;;;7.25;5.68;;;;;;;-146.25;100.00;52295.19;2079801;28;28261;-72
2023/07/24 01:03:52;;;;;;;8.57;5.88;;;;;;;-146.25;100.00;52297.22;2096524;28;20041;-72
2023/07/24 01:04:54;;;;;;;7.45;5.57;;;;;;;-146.25;100.00;52311.44;2095620;28;31635;-72
2023/07/24 01:05:59;;;;;;;7.65;5.63;;;;;;;-146.25;100.00;52319.53;2096422;28;20114;-72
2023/07/24 01:07:00;;;;;;;7.28;5.65;;;;;;;-146.25;100.00;52325.63;2096623;28;29116;-72
2023/07/24 01:08:03;;;;;;;7.35;5.38;;;;;;;-146.25;100.00;52331.69;2096096;28;20485;-72
2023/07/24 01:09:05;;;;;;;8.25;5.70;;;;;;;-146.25;100.00;52299.25;2088157;28;20060;-72
2023/07/24 01:10:09;;;;;;;7.78;5.60;;;;;;;-146.25;100.00;52297.22;2088105;28;20041;-72
2023/07/24 01:11:28;;;;;;;6.00;5.40;;;;;;;-146.25;100.00;52289.13;2095361;28;27320;-69
2023/07/24 01:13:14;;;;;;;7.28;5.18;;;;;;;-146.25;100.00;52297.22;2096487;28;20025;-72
2023/07/24 01:14:29;;;;;;;10.55;5.68;;;;;;;-146.25;100.00;52331.69;2103277;28;33616;-72
2023/07/24 01:15:45;;;;;;;8.07;5.35;;;;;;;-146.25;100.00;52305.34;2088258;28;20076;-72
2023/07/24 01:16:48;;;;;;;6.03;5.03;;;;;;;-146.25;100.00;52299.25;2090630;28;28791;-71
2023/07/24 01:18:08;;;;;;;7.40;5.43;;;;;;;-146.25;100.00;52274.94;2095438;28;26533;-72
2023/07/24 01:19:43;;;;;;;;;;;;;;;-146.25;100.00;52345.91;2091127;28;21961;-72
2023/07/24 01:20:51;;;;;;;6.05;4.97;;;;;;;-146.25;100.00;52305.34;2096101;28;27789;-72
2023/07/24 01:22:24;;;;;;;5.63;4.97;;;;;;;-146.25;100.00;52331.69;2096312;28;26719;-72
2023/07/24 01:23:53;;;;;;;8.13;5.22;;;;;;;-146.25;100.00;52315.47;2101181;28;25938;-72
2023/07/24 01:25:36;;;;;;;6.60;5.28;;;;;;;-146.25;100.00;52335.75;2087332;28;31566;-72
2023/07/24 01:26:38;;;;;;;5.95;5.13;;;;;;;-146.25;100.00;52303.31;2097651;28;21059;-71
2023/07/24 01:27:46;;;;;;;7.00;5.97;;;;;;;-146.25;100.00;52311.44;2080432;28;40019;-72
2023/07/24 01:28:47;;;;;;;9.55;5.68;;;;;;;-146.25;100.00;52307.38;2088522;28;27128;-71
2023/07/24 01:29:52;;;;;;;7.50;5.50;;;;;;;-146.25;100.00;52360.09;2095657;28;27963;-72
2023/07/24 01:30:55;;;;;;;6.97;4.88;;;;;;;-146.25;100.00;52303.31;2087826;28;20041;-72
2023/07/24 01:31:57;;;;;;;9.40;5.68;;;;;;;-146.25;100.00;52305.34;2087663;28;21315;-72
2023/07/24 01:33:01;;;;;;;5.70;5.20;;;;;;;-146.25;100.00;52299.25;2086816;28;31089;-72
2023/07/24 01:34:03;;;;;;;7.30;5.63;;;;;;;-146.25;100.00;52309.41;2087022;28;34661;-72
2023/07/24 01:35:06;;;;;;;7.95;5.97;;;;;;;-146.25;100.00;52331.69;2088167;28;20034;-72
2023/07/24 01:36:15;;;;;;;8.68;6.25;;;;;;;-146.25;100.00;52333.72;2087877;28;20087;-72
2023/07/24 01:37:20;;;;;;;7.07;6.20;;;;;;;-146.25;100.00;52307.38;2089523;28;20038;-72
2023/07/24 01:38:25;;;;;;;7.90;6.00;;;;;;;-146.25;100.00;52270.88;2087298;28;29641;-72
2023/07/24 01:39:27;;;;;;;6.55;5.60;;;;;;;-146.25;100.00;52307.38;2079916;28;32960;-72
2023/07/24 01:40:31;;;;;;;6.30;5.45;;;;;;;-146.25;100.00;52293.19;2088570;28;20119;-72
2023/07/24 01:41:35;;;;;;;6.65;5.60;;;;;;;-146.25;100.00;52323.59;2078766;28;35469;-72
2023/07/24 01:42:37;;;;;;;6.63;5.80;;;;;;;-146.25;100.00;52295.19;2072020;28;27630;-72
2023/07/24 01:43:39;;;;;;;7.82;6.40;;;;;;;-146.25;100.00;52327.66;2079331;28;20042;-72
2023/07/24 01:44:41;;;;;;;6.93;6.22;;;;;;;-146.25;100.00;52315.47;2079450;28;29946;-71
2023/07/24 01:45:43;;;;;;;8.75;6.45;;;;;;;-146.25;100.00;52360.09;2088114;28;23314;-72
2023/07/24 01:46:45;;;;;;;7.15;6.45;;;;;;;-146.25;100.00;52323.59;2088385;28;25316;-70
2023/07/24 01:47:48;;;;;;;7.28;5.88;;;;;;;-146.25;100.00;52291.16;2079322;28;20973;-72
2023/07/24 01:48:49;;;;;;;7.13;6.43;;;;;;;-146.25;100.00;52315.47;2071563;28;20061;-72
2023/07/24 01:49:51;;;;;;;7.72;5.80;;;;;;;-146.25;100.00;52321.56;2087164;28;36378;-71
2023/07/24 01:50:54;;;;;;;7.40;6.43;;;;;;;-146.25;100.00;52299.25;2095627;28;27304;-73
2023/07/24 01:51:57;;;;;;;6.78;6.18;;;;;;;-146.25;100.00;52331.69;2088052;28;23147;-72
2023/07/24 01:53:01;;;;;;;7.47;6.65;;;;;;;-146.25;100.00;52337.78;2088310;28;20148;-72
2023/07/24 01:54:03;;;;;;;7.60;6.05;;;;;;;-146.25;100.00;52327.66;2087646;28;29599;-72
2023/07/24 01:55:05;;;;;;;7.88;6.35;;;;;;;-146.25;100.00;52315.47;2087296;28;23942;-72
2023/07/24 01:56:09;;;;;;;7.10;5.95;;;;;;;-146.25;100.00;52293.19;2079297;28;26395;-72
2023/07/24 01:57:11;;;;;;;9.32;6.30;;;;;;;-146.25;100.00;52297.22;2087712;28;20042;-72
2023/07/24 01:58:12;;;;;;;7.10;6.40;;;;;;;-146.25;100.00;52319.53;2097368;28;20191;-72
2023/07/24 01:59:15;;;;;;;9.48;6.82;;;;;;;-146.25;100.00;52301.28;2087760;28;20036;-72
2023/07/24 02:00:17;;;;;;;12.02;6.38;;;;;;;-146.25;100.00;52309.41;2079802;28;20050;-72
2023/07/24 02:01:19;;;;;;;7.55;6.18;;;;;;;-146.25;100.00;52315.47;2087023;28;20181;-72
2023/07/24 02:02:20;;;;;;;7.13;6.25;;;;;;;-146.25;100.00;52374.28;2087706;28;26880;-72
2023/07/24 02:03:22;;;;;;;7.18;6.45;;;;;;;-146.25;100.00;52303.31;2094966;28;34298;-72
2023/07/24 02:04:24;;;;;;;6.78;6.07;;;;;;;-146.25;100.00;52291.16;2087938;28;23223;-72
2023/07/24 02:05:26;;;;;;;6.20;5.70;;;;;;;-146.25;100.00;52327.66;2088573;28;20080;-72
2023/07/24 02:06:30;;;;;;;7.38;6.45;;;;;;;-146.25;100.00;52301.28;2087477;28;24801;-72
2023/07/24 02:07:33;;;;;;;7.82;6.13;;;;;;;-146.25;100.00;52327.66;2080296;28;20043;-72
2023/07/24 02:08:35;;;;;;;6.50;5.88;;;;;;;-146.25;100.00;52339.81;2087599;28;20883;-72
2023/07/24 02:09:36;;;;;;;8.60;6.50;;;;;;;-146.25;100.00;52309.41;2088046;28;30744;-70
2023/07/24 02:10:38;;;;;;;7.97;6.10;;;;;;;-146.25;100.00;52339.81;2088034;28;20041;-71
2023/07/24 02:11:40;;;;;;;7.95;6.20;;;;;;;-146.25;100.00;52313.44;2088380;28;20163;-71
2023/07/24 02:12:42;;;;;;;6.90;6.20;;;;;;;-146.25;100.00;52333.72;2087481;28;20153;-71
2023/07/24 02:13:44;;;;;;;8.23;6.25;;;;;;;-146.25;100.00;52351.97;2087500;28;20795;-71
2023/07/24 02:14:51;;;;;;;7.00;6.30;;;;;;;-146.25;100.00;52321.56;2087587;28;20164;-71
2023/07/24 02:15:53;;;;;;;6.80;6.10;;;;;;;-146.25;100.00;52323.59;2079927;28;20123;-71
2023/07/24 02:16:56;;;;;;;8.52;6.72;;;;;;;-146.25;100.00;52309.41;2079515;28;20139;-70
2023/07/24 02:17:58;;;;;;;7.97;6.32;;;;;;;-146.25;100.00;52321.56;2078731;28;27329;-73
2023/07/24 02:19:00;;;;;;;8.00;6.25;;;;;;;-146.25;100.00;52278.97;2087582;28;20045;-71
2023/07/24 02:20:06;;;;;;;7.75;6.00;;;;;;;-146.25;100.00;52299.25;2087507;28;20928;-71
2023/07/24 02:21:09;;;;;;;8.20;5.78;;;;;;;-146.25;100.00;52299.25;2087114;28;20033;-73
2023/07/24 02:22:11;;;;;;;8.25;6.10;;;;;;;-146.25;100.00;52305.34;2087475;28;20122;-71
2023/07/24 02:23:12;;;;;;;7.28;5.95;;;;;;;-146.25;100.00;52321.56;2088423;28;23706;-72
2023/07/24 02:24:14;;;;;;;7.57;6.03;;;;;;;-146.25;100.00;52388.47;2088332;28;27595;-71
2023/07/24 02:25:19;;;;;;;7.60;6.32;;;;;;;-146.25;100.00;52307.38;2089054;28;27058;-70
2023/07/24 02:26:21;;;;;;;9.30;6.43;;;;;;;-146.25;100.00;52315.47;2088858;28;21982;-71
2023/07/24 02:27:34;;;;;;;8.43;6.70;;;;;;;-146.25;100.00;52329.66;2079997;28;34333;-71
2023/07/24 02:28:36;;;;;;;7.25;6.28;;;;;;;-146.25;100.00;52315.47;2089108;28;20104;-71
2023/07/24 02:29:37;;;;;;;8.10;6.05;;;;;;;-146.25;100.00;52323.59;2088237;28;31152;-71
2023/07/24 02:30:42;;;;;;;8.52;6.50;;;;;;;-146.25;100.00;52315.47;2088157;28;32343;-72
2023/07/24 02:31:44;;;;;;;8.50;6.22;;;;;;;-146.25;100.00;52345.91;2079966;28;33744;-71
2023/07/24 02:32:45;;;;;;;7.85;6.72;;;;;;;-146.25;100.00;52327.66;2088549;28;29282;-71
2023/07/24 02:33:49;;;;;;;8.05;6.00;;;;;;;-146.25;100.00;52315.47;2089193;28;20941;-71
2023/07/24 02:34:52;;;;;;;6.97;6.28;;;;;;;-146.25;100.00;52335.75;2089058;28;23062;-71
2023/07/24 02:35:53;;;;;;;7.13;6.43;;;;;;;-146.25;100.00;52303.31;2072435;28;24925;-71
2023/07/24 02:37:00;;;;;;;6.47;5.88;;;;;;;-146.25;100.00;52325.63;2072818;28;20165;-71
2023/07/24 02:38:01;;;;;;;9.38;6.32;;;;;;;-146.25;100.00;52339.81;2080811;28;34951;-71
2023/07/24 02:39:03;;;;;;;7.53;6.78;;;;;;;-146.25;100.00;52295.19;2089692;28;23042;-70
2023/07/24 02:40:08;;;;;;;8.35;6.80;;;;;;;-146.25;100.00;52349.94;2089470;28;20207;-71
2023/07/24 02:41:10;;;;;;;7.80;6.57;;;;;;;-146.25;100.00;52364.13;2088962;28;20069;-71
2023/07/24 02:42:12;;;;;;;7.35;6.57;;;;;;;-146.25;100.00;52289.13;2088755;28;20052;-71
2023/07/24 02:43:15;;;;;;;8.27;7.13;;;;;;;-146.25;100.00;52335.75;2088325;28;27034;-72
2023/07/24 02:44:19;;;;;;;8.68;6.95;;;;;;;-146.25;100.00;52291.16;2088911;28;20049;-72
2023/07/24 02:45:22;;;;;;;8.65;7.07;;;;;;;-146.25;100.00;52370.22;2089305;28;24155;-71
2023/07/24 02:46:24;;;;;;;8.07;6.72;;;;;;;-146.25;100.00;52303.31;2088132;28;21619;-71
2023/07/24 02:47:29;;;;;;;7.93;7.07;;;;;;;-146.25;100.00;52307.38;2089203;28;28183;-71
2023/07/24 02:48:33;;;;;;;7.30;6.55;;;;;;;-146.25;100.00;52356.03;2088959;28;26524;-72
2023/07/24 02:49:35;;;;;;;7.82;7.00;;;;;;;-146.25;100.00;52317.50;2089157;28;25365;-72
2023/07/24 02:50:37;;;;;;;8.75;7.28;;;;;;;-146.25;100.00;52327.66;2088781;28;29971;-73
2023/07/24 02:51:40;;;;;;;7.47;6.75;;;;;;;-146.25;100.00;52315.47;2088154;28;32865;-71
2023/07/24 02:52:42;;;;;;;8.20;7.40;;;;;;;-146.25;100.00;52303.31;2088982;28;20107;-72
2023/07/24 02:53:44;;;;;;;9.07;6.68;;;;;;;-146.25;100.00;52317.50;2097135;28;23547;-72
2023/07/24 02:54:46;;;;;;;7.50;6.70;;;;;;;-146.25;100.00;52317.50;2089663;28;20048;-72
2023/07/24 02:56:16;;;;;;;10.00;7.20;;;;;;;-146.25;100.00;52289.13;2089030;28;31438;-72
2023/07/24 02:57:20;;;;;;;8.93;7.45;;;;;;;-146.25;100.00;52299.25;2080779;28;20038;-72
2023/07/24 02:58:22;;;;;;;9.10;7.45;;;;;;;-146.25;100.00;52307.38;2084023;28;31888;-72
2023/07/24 02:59:23;;;;;;;9.07;7.55;;;;;;;-146.25;100.00;52315.47;2088215;28;27238;-72
2023/07/24 03:00:25;;;;;;;10.07;7.43;;;;;;;-146.25;100.00;52343.88;2080139;28;20886;-71
2023/07/24 03:01:27;;;;;;;9.85;7.88;;;;;;;-146.25;100.00;52295.19;2088689;28;20983;-72
2023/07/24 03:02:29;;;;;;;9.48;7.60;;;;;;;-146.25;100.00;52305.34;2096639;28;31331;-72
2023/07/24 03:03:31;;;;;;;8.40;7.60;;;;;;;-146.25;100.00;52319.53;2088850;28;27591;-72
2023/07/24 03:04:33;;;;;;;10.25;7.53;;;;;;;-146.25;100.00;52351.97;2088247;28;32021;-72
2023/07/24 03:05:35;;;;;;;12.70;7.90;;;;;;;-146.25;100.00;52307.38;2089073;28;20045;-71
2023/07/24 03:06:36;;;;;;;8.80;7.80;;;;;;;-146.25;100.00;52345.91;2088523;28;29205;-71
2023/07/24 03:07:38;;;;;;;10.60;7.78;;;;;;;-146.25;100.00;52319.53;2088195;28;26066;-71
2023/07/24 03:08:40;;;;;;;10.68;8.13;;;;;;;-146.25;100.00;52358.06;2088052;28;30344;-72
2023/07/24 03:09:45;;;;;;;11.15;8.40;;;;;;;-146.25;100.00;52317.50;2088809;28;20045;-71
2023/07/24 03:10:46;;;;;;;10.48;8.02;;;;;;;-146.25;100.00;52307.38;2088320;28;20049;-72
2023/07/24 03:11:49;;;;;;;9.65;8.65;;;;;;;-146.25;100.00;52339.81;2088502;28;20881;-72
2023/07/24 03:12:52;;;;;;;9.65;8.35;;;;;;;-146.25;100.00;52335.75;2088524;28;20115;-72
2023/07/24 03:13:53;;;;;;;10.30;8.48;;;;;;;-146.25;100.00;52272.91;2088695;28;20855;-72
2023/07/24 03:14:55;;;;;;;11.70;9.02;;;;;;;-146.25;100.00;52319.53;2089100;28;20034;-72
2023/07/24 03:15:58;;;;;;;10.45;8.70;;;;;;;-146.25;100.00;52337.78;2088976;28;24624;-72
2023/07/24 03:17:02;;;;;;;10.63;8.50;;;;;;;-146.25;100.00;52293.19;2080342;28;20972;-72
2023/07/24 03:18:04;;;;;;;12.27;9.20;;;;;;;-146.25;100.00;52337.78;2072123;28;30252;-71
2023/07/24 03:19:06;;;;;;;9.90;8.85;;;;;;;-146.25;100.00;52297.22;2088487;28;30212;-72
2023/07/24 03:20:10;;;;;;;11.07;8.93;;;;;;;-146.25;100.00;52337.78;2088946;28;31377;-72
2023/07/24 03:21:12;;;;;;;10.38;8.95;;;;;;;-146.25;100.00;52323.59;2088501;28;20148;-71
2023/07/24 03:22:13;;;;;;;11.48;8.88;;;;;;;-146.25;100.00;52351.97;2088108;28;26709;-72
2023/07/24 03:23:20;;;;;;;9.82;8.68;;;;;;;-146.25;100.00;52311.44;2096066;28;29960;-72
2023/07/24 03:24:22;;;;;;;11.13;8.65;;;;;;;-146.25;100.00;52347.91;2095786;28;31697;-71
2023/07/24 03:25:23;;;;;;;16.77;9.43;;;;;;;-146.25;100.00;52285.06;2089152;28;20026;-71
2023/07/24 03:26:25;;;;;;;10.52;9.43;;;;;;;-146.25;100.00;52317.50;2088195;28;20114;-72
2023/07/24 03:27:27;;;;;;;12.32;9.73;;;;;;;-146.25;100.00;52311.44;2088910;28;20139;-71
2023/07/24 03:28:29;;;;;;;11.25;8.93;;;;;;;-146.25;100.00;52299.25;2088362;28;24159;-72
2023/07/24 03:29:31;;;;;;;12.32;9.43;;;;;;;-146.25;100.00;52315.47;2080171;28;34469;-71
2023/07/24 03:30:33;;;;;;;13.40;8.80;;;;;;;-146.25;100.00;52315.47;2088285;28;31078;-72
2023/07/24 03:31:34;;;;;;;13.65;9.75;;;;;;;-146.25;100.00;52345.91;2088554;28;32144;-72
2023/07/24 03:32:37;;;;;;;14.32;9.80;;;;;;;-146.25;100.00;52327.66;2080367;28;20951;-72
2023/07/24 03:33:41;;;;;;;10.57;8.93;;;;;;;-146.25;100.00;52307.38;2080645;28;20136;-72
2023/07/24 03:34:43;;;;;;;10.35;8.65;;;;;;;-146.25;100.00;52297.22;2095338;28;36668;-72
2023/07/24 03:35:47;;;;;;;9.43;8.48;;;;;;;-146.25;100.00;52335.75;2087968;28;28686;-72
2023/07/24 03:36:49;;;;;;;9.90;7.97;;;;;;;-146.25;100.00;52335.75;2080144;28;29707;-72
2023/07/24 03:37:51;;;;;;;14.05;9.80;;;;;;;-146.25;100.00;52366.16;2088332;28;30657;-72
2023/07/24 03:38:53;;;;;;;13.88;9.68;;;;;;;-146.25;100.00;52327.66;2089406;28;20239;-72
2023/07/24 03:39:55;;;;;;;11.25;9.65;;;;;;;-146.25;100.00;52317.50;2088395;28;20033;-72
2023/07/24 03:41:01;;;;;;;13.60;9.82;;;;;;;-146.25;100.00;52354.00;2089120;28;20146;-72
2023/07/24 03:42:04;;;;;;;14.20;9.63;;;;;;;-146.25;100.00;52299.25;2088986;28;20107;-72
2023/07/24 03:43:06;;;;;;;10.55;8.95;;;;;;;-146.25;100.00;52335.75;2088451;28;20045;-72
2023/07/24 03:44:08;;;;;;;12.10;9.55;;;;;;;-146.25;100.00;52333.72;2088138;28;24583;-72
2023/07/24 03:45:10;;;;;;;10.20;8.85;;;;;;;-146.25;100.00;52362.13;2087905;28;23878;-72
2023/07/24 03:46:15;;;;;;;12.18;9.57;;;;;;;-146.25;100.00;52339.81;2080477;28;20182;-72
2023/07/24 03:47:17;;;;;;;12.45;9.73;;;;;;;-146.25;100.00;52329.66;2088659;28;20443;-72
2023/07/24 03:48:19;;;;;;;13.55;10.07;;;;;;;-146.25;100.00;52323.59;2079271;28;37050;-72
2023/07/24 03:49:22;;;;;;;12.23;9.52;;;;;;;-146.25;100.00;52323.59;2080085;28;33173;-73
2023/07/24 03:50:24;;;;;;;10.10;9.00;;;;;;;-146.25;100.00;52337.78;2088394;28;36490;-73
2023/07/24 03:51:26;;;;;;;12.75;9.38;;;;;;;-146.25;100.00;52315.47;2088689;28;20132;-72
2023/07/24 03:52:28;;;;;;;10.95;9.43;;;;;;;-146.25;100.00;52333.72;2087992;28;31889;-71
2023/07/24 03:53:30;;;;;;;11.77;9.23;;;;;;;-146.25;100.00;52339.81;2087813;28;37121;-71
2023/07/24 03:54:32;;;;;;;12.25;8.70;;;;;;;-146.25;100.00;52303.31;2088381;28;33776;-72
2023/07/24 03:55:34;;;;;;;11.38;8.50;;;;;;;-146.25;100.00;52347.91;2088794;28;20037;-72
2023/07/24 03:56:36;;;;;;;11.75;9.13;;;;;;;-146.25;100.00;52317.50;2088178;28;36755;-72
2023/07/24 03:57:37;;;;;;;11.52;9.57;;;;;;;-146.25;100.00;52323.59;2088608;28;34075;-72
2023/07/24 03:58:39;;;;;;;9.13;7.75;;;;;;;-146.25;100.00;52307.38;2088168;28;34927;-72
2023/07/24 03:59:41;;;;;;;12.48;8.88;;;;;;;-146.25;100.00;52343.88;2088408;28;36522;-72
2023/07/24 04:00:43;;;;;;;9.07;8.18;;;;;;;-146.25;100.00;52321.56;2087543;28;35154;-72
2023/07/24 04:01:44;;;;;;;10.25;8.73;;;;;;;-146.25;100.00;52293.19;2087524;28;37376;-72
2023/07/24 04:02:47;;;;;;;10.60;8.05;;;;;;;-146.25;100.00;52329.66;2088423;28;28752;-72
2023/07/24 04:03:49;;;;;;;8.55;7.45;;;;;;;-146.25;100.00;52327.66;2086879;28;37127;-72
2023/07/24 04:04:51;;;;;;;9.15;8.18;;;;;;;-146.25;100.00;52305.34;2087844;28;34234;-72
2023/07/24 04:05:52;;;;;;;12.65;8.40;;;;;;;-146.25;100.00;52327.66;2095753;28;31675;-72
2023/07/24 04:06:56;;;;;;;10.88;8.65;;;;;;;-146.25;100.00;52307.38;2088829;28;20045;-72
2023/07/24 04:08:02;;;;;;;9.15;7.65;;;;;;;-146.25;100.00;52347.91;2088446;28;35011;-72
2023/07/24 04:09:04;;;;;;;9.55;8.35;;;;;;;-146.25;100.00;52319.53;2088508;28;20045;-72
2023/07/24 04:10:07;;;;;;;8.98;7.72;;;;;;;-146.25;100.00;52311.44;2087911;28;34338;-72
2023/07/24 04:11:09;;;;;;;9.18;7.90;;;;;;;-146.25;100.00;52303.31;2087524;28;34675;-72
2023/07/24 04:12:10;;;;;;;10.15;7.95;;;;;;;-146.25;100.00;52376.31;2087672;28;32738;-71
2023/07/24 04:13:12;;;;;;;9.77;7.90;;;;;;;-146.25;100.00;52349.94;2088459;28;34681;-71
2023/07/24 04:14:14;;;;;;;8.93;7.07;;;;;;;-146.25;100.00;52323.59;2088413;28;20038;-72
2023/07/24 04:15:16;;;;;;;12.65;7.70;;;;;;;-146.25;100.00;52370.22;2087593;28;32789;-71
2023/07/24 04:16:17;;;;;;;9.18;6.85;;;;;;;-146.25;100.00;52323.59;2088011;28;36610;-71
2023/07/24 04:17:19;;;;;;;10.68;7.32;;;;;;;-146.25;100.00;52303.31;2080499;28;20044;-71
2023/07/24 04:18:21;;;;;;;9.65;7.32;;;;;;;-146.25;100.00;52337.78;2087467;28;35687;-71
2023/07/24 04:19:23;;;;;;;10.02;7.53;;;;;;;-146.25;100.00;52347.91;2088313;28;32899;-71
2023/07/24 04:20:25;;;;;;;11.65;7.38;;;;;;;-146.25;100.00;52351.97;2088961;28;20072;-71
2023/07/24 04:21:27;;;;;;;7.10;6.32;;;;;;;-146.25;100.00;52339.81;2089168;28;20034;-71
2023/07/24 04:22:29;;;;;;;6.88;6.07;;;;;;;-146.25;100.00;52339.81;2087569;28;36893;-71
2023/07/24 04:23:30;;;;;;;7.65;6.85;;;;;;;-146.25;100.00;52345.91;2087968;28;26846;-71
2023/07/24 04:24:32;;;;;;;7.22;6.60;;;;;;;-146.25;100.00;52333.72;2095314;28;35403;-71
2023/07/24 04:25:34;;;;;;;7.63;6.32;;;;;;;-146.25;100.00;52315.47;2097409;28;20045;-71
2023/07/24 04:26:36;;;;;;;9.18;6.90;;;;;;;-146.25;100.00;52333.72;2096276;28;38247;-72
2023/07/24 04:27:39;;;;;;;9.02;6.60;;;;;;;-146.25;100.00;52333.72;2104362;28;35877;-70
2023/07/24 04:28:40;;;;;;;6.90;6.20;;;;;;;-146.25;100.00;52345.91;2103678;28;30583;-71
2023/07/24 04:29:42;;;;;;;8.55;7.15;;;;;;;-146.25;100.00;52333.72;2096613;28;36967;-73
2023/07/24 04:30:46;;;;;;;9.93;7.03;;;;;;;-146.25;100.00;52364.13;2097283;28;20080;-70
2023/07/24 04:31:48;;;;;;;9.43;6.78;;;;;;;-146.25;100.00;52351.97;2096600;28;32083;-72
2023/07/24 04:32:51;;;;;;;7.90;6.22;;;;;;;-146.25;100.00;52329.66;2096196;28;35317;-72
2023/07/24 04:33:53;;;;;;;7.57;6.55;;;;;;;-146.25;100.00;52331.69;2096066;28;30901;-72
2023/07/24 04:34:55;;;;;;;6.72;6.03;;;;;;;-146.25;100.00;52329.66;2095552;28;37393;-71
2023/07/24 04:35:57;;;;;;;6.32;5.72;;;;;;;-146.25;100.00;52329.66;2096859;28;34887;-71
2023/07/24 04:36:59;;;;;;;8.23;4.95;;;;;;;-146.25;100.00;52291.16;2096382;28;33663;-72
2023/07/24 04:38:03;;;;;;;5.97;5.25;;;;;;;-146.25;100.00;52315.47;2096260;28;39227;-71
2023/07/24 04:39:05;;;;;;;5.50;5.00;;;;;;;-146.25;100.00;52315.47;2096974;28;28568;-71
2023/07/24 04:40:07;;;;;;;5.35;4.85;;;;;;;-146.25;100.00;52309.41;2095863;28;34811;-71
2023/07/24 04:41:11;;;;;;;5.82;5.07;;;;;;;-146.25;100.00;52268.84;2096254;28;38040;-71
2023/07/24 04:42:12;;;;;;;6.93;5.00;;;;;;;-146.25;100.00;52364.13;2096609;28;31611;-71
2023/07/24 04:43:16;;;;;;;5.75;5.25;;;;;;;-146.25;100.00;52356.03;2097050;28;20033;-71
2023/07/24 04:44:18;;;;;;;5.78;5.28;;;;;;;-146.25;100.00;52354.00;2096417;28;34346;-71
2023/07/24 04:45:22;;;;;;;5.90;5.32;;;;;;;-146.25;100.00;52341.84;2095520;28;20045;-71
2023/07/24 04:46:24;;;;;;;8.23;5.57;;;;;;;-146.25;100.00;52323.59;2096370;28;39013;-70
2023/07/24 04:47:27;;;;;;;6.03;5.30;;;;;;;-146.25;100.00;52327.66;2097319;28;20112;-71